createdAt,value
2018-04-23T00:00:11.823Z,0
2018-04-23T00:00:43.885Z,0
2018-04-23T00:01:15.940Z,0
2018-04-23T00:01:47.959Z,0
2018-04-23T00:02:19.948Z,0
2018-04-23T00:02:52.034Z,0
2018-04-23T00:03:24.063Z,0
2018-04-23T00:03:56.082Z,0
2018-04-23T00:04:28.096Z,0
2018-04-23T00:05:00.225Z,0
2018-04-23T00:05:32.238Z,0
2018-04-23T00:06:04.270Z,0
2018-04-23T00:06:36.291Z,0
2018-04-23T00:07:08.456Z,0
2018-04-23T00:07:40.447Z,0
2018-04-23T00:08:12.449Z,0
2018-04-23T00:08:44.478Z,0
2018-04-23T00:09:16.466Z,0
2018-04-23T00:09:48.505Z,0
2018-04-23T00:10:20.600Z,0
2018-04-23T00:10:52.653Z,0
2018-04-23T00:11:24.661Z,0
2018-04-23T00:11:56.691Z,0
2018-04-23T00:12:28.745Z,0
2018-04-23T00:13:00.768Z,0
2018-04-23T00:13:32.781Z,0
2018-04-23T00:14:04.801Z,0
2018-04-23T00:14:36.812Z,0
2018-04-23T00:15:08.836Z,0
2018-04-23T00:15:40.857Z,0
2018-04-23T00:16:12.903Z,0
2018-04-23T00:16:44.939Z,0
2018-04-23T00:17:17.050Z,0
2018-04-23T00:17:49.096Z,0
2018-04-23T00:18:21.150Z,0
2018-04-23T00:18:53.167Z,0
2018-04-23T00:19:25.185Z,0
2018-04-23T00:19:57.211Z,0
2018-04-23T00:20:29.292Z,0
2018-04-23T00:21:01.326Z,0
2018-04-23T00:21:33.335Z,0
2018-04-23T00:22:05.395Z,0
2018-04-23T00:22:37.495Z,0
2018-04-23T00:23:09.586Z,0
2018-04-23T00:23:41.630Z,0
2018-04-23T00:24:13.674Z,0
2018-04-23T00:24:45.772Z,0
2018-04-23T00:25:17.824Z,0
2018-04-23T00:25:49.842Z,0
2018-04-23T00:26:21.861Z,0
2018-04-23T00:26:53.968Z,0
2018-04-23T00:27:26.014Z,0
2018-04-23T00:27:58.035Z,0
2018-04-23T00:28:30.167Z,0
2018-04-23T00:29:02.207Z,0
2018-04-23T00:29:34.274Z,0
2018-04-23T00:30:06.322Z,0
2018-04-23T00:30:38.374Z,0
2018-04-23T00:31:10.492Z,0
2018-04-23T00:31:42.531Z,0
2018-04-23T00:32:15.358Z,0
2018-04-23T00:32:47.395Z,0
2018-04-23T00:33:19.454Z,0
2018-04-23T00:33:51.503Z,0
2018-04-23T00:34:23.629Z,0
2018-04-23T00:34:55.690Z,0
2018-04-23T00:35:27.717Z,0
2018-04-23T00:35:59.708Z,0
2018-04-23T00:36:31.717Z,0
2018-04-23T00:37:03.743Z,0
2018-04-23T00:37:35.763Z,0
2018-04-23T00:38:07.766Z,0
2018-04-23T00:38:39.827Z,0
2018-04-23T00:39:11.883Z,0
2018-04-23T00:39:43.902Z,0
2018-04-23T00:40:15.953Z,0
2018-04-23T00:40:47.973Z,0
2018-04-23T00:41:20.104Z,0
2018-04-23T00:41:52.191Z,0
2018-04-23T00:42:24.296Z,0
2018-04-23T00:42:56.283Z,0
2018-04-23T00:43:28.327Z,0
2018-04-23T00:44:00.948Z,0
2018-04-23T00:44:33.063Z,0
2018-04-23T00:45:05.142Z,0
2018-04-23T00:45:37.181Z,0
2018-04-23T00:46:09.272Z,0
2018-04-23T00:46:41.310Z,0
2018-04-23T00:47:13.369Z,0
2018-04-23T00:47:45.411Z,0
2018-04-23T00:48:18.269Z,0
2018-04-23T00:48:50.333Z,0
2018-04-23T00:49:22.372Z,0
2018-04-23T00:49:54.492Z,0
2018-04-23T00:50:26.539Z,0
2018-04-23T00:50:58.568Z,0
2018-04-23T00:51:30.636Z,0
2018-04-23T00:52:02.666Z,0
2018-04-23T00:52:34.666Z,0
2018-04-23T00:53:06.726Z,0
2018-04-23T00:53:38.760Z,0
2018-04-23T00:54:10.776Z,0
2018-04-23T00:54:42.808Z,0
2018-04-23T00:55:14.858Z,0
2018-04-23T00:55:46.919Z,0
2018-04-23T00:56:18.933Z,0
2018-04-23T00:56:50.949Z,0
2018-04-23T00:57:22.922Z,0
2018-04-23T00:57:54.981Z,0
2018-04-23T00:58:27.043Z,0
2018-04-23T00:58:59.052Z,0
2018-04-23T00:59:31.069Z,0
2018-04-23T01:00:03.125Z,0
2018-04-23T01:00:35.150Z,0
2018-04-23T01:01:07.165Z,0
2018-04-23T01:01:39.216Z,0
2018-04-23T01:02:11.274Z,0
2018-04-23T01:02:43.340Z,0
2018-04-23T01:03:15.387Z,0
2018-04-23T01:03:47.442Z,0
2018-04-23T01:04:19.462Z,0
2018-04-23T01:04:51.501Z,0
2018-04-23T01:05:23.518Z,0
2018-04-23T01:05:55.580Z,0
2018-04-23T01:06:27.633Z,0
2018-04-23T01:06:59.665Z,0
2018-04-23T01:07:31.678Z,0
2018-04-23T01:08:03.665Z,0
2018-04-23T01:08:35.661Z,0
2018-04-23T01:09:07.693Z,0
2018-04-23T01:09:39.744Z,0
2018-04-23T01:10:12.648Z,0
2018-04-23T01:10:44.680Z,0
2018-04-23T01:11:16.721Z,0
2018-04-23T01:11:48.766Z,0
2018-04-23T01:12:20.794Z,0
2018-04-23T01:12:52.831Z,0
2018-04-23T01:13:24.870Z,0
2018-04-23T01:13:57.486Z,0
2018-04-23T01:14:29.523Z,0
2018-04-23T01:15:01.553Z,0
2018-04-23T01:15:33.613Z,0
2018-04-23T01:16:05.640Z,0
2018-04-23T01:16:37.647Z,0
2018-04-23T01:17:09.676Z,0
2018-04-23T01:17:41.685Z,0
2018-04-23T01:18:13.740Z,0
2018-04-23T01:18:45.786Z,0
2018-04-23T01:19:17.781Z,0
2018-04-23T01:19:49.823Z,0
2018-04-23T01:20:21.864Z,0
2018-04-23T01:20:53.864Z,0
2018-04-23T01:21:25.866Z,0
2018-04-23T01:21:57.926Z,0
2018-04-23T01:22:29.984Z,0
2018-04-23T01:23:02.066Z,0
2018-04-23T01:23:34.112Z,0
2018-04-23T01:24:06.147Z,0
2018-04-23T01:24:38.224Z,0
2018-04-23T01:25:10.235Z,0
2018-04-23T01:25:42.254Z,0
2018-04-23T01:26:14.283Z,0
2018-04-23T01:26:46.287Z,0
2018-04-23T01:27:18.380Z,0
2018-04-23T01:27:50.440Z,0
2018-04-23T01:28:22.419Z,0
2018-04-23T01:28:54.474Z,0
2018-04-23T01:29:26.494Z,0
2018-04-23T01:29:58.590Z,0
2018-04-23T01:30:30.616Z,0
2018-04-23T01:31:02.711Z,0
2018-04-23T01:31:34.692Z,0
2018-04-23T01:32:06.760Z,0
2018-04-23T01:32:38.804Z,0
2018-04-23T01:33:10.789Z,0
2018-04-23T01:33:42.816Z,0
2018-04-23T01:34:14.867Z,0
2018-04-23T01:34:46.888Z,0
2018-04-23T01:35:18.927Z,0
2018-04-23T01:35:51.894Z,0
2018-04-23T01:36:23.900Z,0
2018-04-23T01:36:55.961Z,0
2018-04-23T01:37:27.976Z,0
2018-04-23T01:38:00.011Z,0
2018-04-23T01:38:32.050Z,0
2018-04-23T01:39:04.085Z,0
2018-04-23T01:39:36.085Z,0
2018-04-23T01:40:08.102Z,0
2018-04-23T01:40:40.114Z,0
2018-04-23T01:41:12.145Z,0
2018-04-23T01:41:44.125Z,0
2018-04-23T01:42:16.133Z,0
2018-04-23T01:42:48.197Z,0
2018-04-23T01:43:20.229Z,0
2018-04-23T01:43:52.253Z,0
2018-04-23T01:44:24.309Z,0
2018-04-23T01:44:56.382Z,0
2018-04-23T01:45:28.426Z,0
2018-04-23T01:46:00.422Z,0
2018-04-23T01:46:32.461Z,0
2018-04-23T01:47:04.535Z,0
2018-04-23T01:47:36.550Z,0
2018-04-23T01:48:08.590Z,0
2018-04-23T01:48:40.646Z,0
2018-04-23T01:49:12.703Z,0
2018-04-23T01:49:44.713Z,0
2018-04-23T01:50:16.698Z,0
2018-04-23T01:50:48.711Z,0
2018-04-23T01:51:20.736Z,0
2018-04-23T01:51:52.735Z,0
2018-04-23T01:52:24.919Z,0
2018-04-23T01:52:56.952Z,0
2018-04-23T01:53:28.971Z,0
2018-04-23T01:54:01.480Z,0
2018-04-23T01:54:33.539Z,0
2018-04-23T01:55:05.552Z,0
2018-04-23T01:55:37.596Z,0
2018-04-23T01:56:09.640Z,0
2018-04-23T01:56:41.668Z,0
2018-04-23T01:57:13.681Z,0
2018-04-23T01:57:45.717Z,0
2018-04-23T01:58:17.778Z,0
2018-04-23T01:58:49.831Z,0
2018-04-23T01:59:21.854Z,0
2018-04-23T01:59:53.843Z,0
2018-04-23T02:00:25.852Z,0
2018-04-23T02:00:57.893Z,0
2018-04-23T02:01:29.926Z,0
2018-04-23T02:02:02.084Z,0
2018-04-23T02:02:34.151Z,0
2018-04-23T02:03:06.200Z,0
2018-04-23T02:03:38.221Z,0
2018-04-23T02:04:10.253Z,0
2018-04-23T02:04:42.202Z,0
2018-04-23T02:05:14.247Z,0
2018-04-23T02:05:46.237Z,0
2018-04-23T02:06:18.424Z,0
2018-04-23T02:06:50.533Z,0
2018-04-23T02:07:22.548Z,0
2018-04-23T02:07:54.562Z,0
2018-04-23T02:08:26.623Z,0
2018-04-23T02:08:58.675Z,0
2018-04-23T02:09:30.703Z,0
2018-04-23T02:10:02.723Z,0
2018-04-23T02:10:34.829Z,0
2018-04-23T02:11:06.886Z,0
2018-04-23T02:11:38.839Z,0
2018-04-23T02:12:10.866Z,0
2018-04-23T02:12:42.932Z,0
2018-04-23T02:13:14.965Z,0
2018-04-23T02:13:47.488Z,0
2018-04-23T02:14:19.530Z,0
2018-04-23T02:14:51.535Z,0
2018-04-23T02:15:23.583Z,0
2018-04-23T02:15:55.591Z,0
2018-04-23T02:16:27.643Z,0
2018-04-23T02:17:00.294Z,0
2018-04-23T02:17:32.331Z,0
2018-04-23T02:18:04.369Z,0
2018-04-23T02:18:36.356Z,0
2018-04-23T02:19:08.482Z,0
2018-04-23T02:19:40.574Z,0
2018-04-23T02:20:12.609Z,0
2018-04-23T02:20:44.664Z,0
2018-04-23T02:21:16.699Z,0
2018-04-23T02:21:48.732Z,0
2018-04-23T02:22:20.771Z,0
2018-04-23T02:22:52.854Z,0
2018-04-23T02:23:24.878Z,0
2018-04-23T02:23:56.932Z,0
2018-04-23T02:24:28.930Z,0
2018-04-23T02:25:00.934Z,0
2018-04-23T02:25:32.920Z,0
2018-04-23T02:26:04.953Z,0
2018-04-23T02:26:37.059Z,0
2018-04-23T02:27:09.054Z,0
2018-04-23T02:27:41.098Z,0
2018-04-23T02:28:13.146Z,0
2018-04-23T02:28:45.167Z,0
2018-04-23T02:29:17.191Z,0
2018-04-23T02:29:49.220Z,0
2018-04-23T02:30:21.276Z,0
2018-04-23T02:30:53.314Z,0
2018-04-23T02:31:25.355Z,0
2018-04-23T02:31:57.386Z,0
2018-04-23T02:32:29.413Z,0
2018-04-23T02:33:01.441Z,0
2018-04-23T02:33:33.468Z,0
2018-04-23T02:34:05.485Z,0
2018-04-23T02:34:37.537Z,0
2018-04-23T02:35:09.650Z,0
2018-04-23T02:35:41.711Z,0
2018-04-23T02:36:13.737Z,0
2018-04-23T02:36:45.740Z,0
2018-04-23T02:37:17.854Z,0
2018-04-23T02:37:49.893Z,0
2018-04-23T02:38:21.937Z,0
2018-04-23T02:38:54.025Z,0
2018-04-23T02:39:26.085Z,0
2018-04-23T02:39:58.173Z,0
2018-04-23T02:40:30.216Z,0
2018-04-23T02:41:02.253Z,0
2018-04-23T02:41:34.299Z,0
2018-04-23T02:42:06.344Z,0
2018-04-23T02:42:38.402Z,0
2018-04-23T02:43:10.407Z,0
2018-04-23T02:43:42.497Z,0
2018-04-23T02:44:14.523Z,0
2018-04-23T02:44:46.544Z,0
2018-04-23T02:45:18.611Z,0
2018-04-23T02:45:50.658Z,0
2018-04-23T02:46:22.698Z,0
2018-04-23T02:46:54.741Z,0
2018-04-23T02:47:26.763Z,0
2018-04-23T02:47:58.771Z,0
2018-04-23T02:48:30.789Z,0
2018-04-23T02:49:02.805Z,0
2018-04-23T02:49:34.861Z,0
2018-04-23T02:50:06.896Z,0
2018-04-23T02:50:39.021Z,0
2018-04-23T02:51:11.032Z,0
2018-04-23T02:51:43.082Z,0
2018-04-23T02:52:15.121Z,0
2018-04-23T02:52:47.176Z,0
2018-04-23T02:53:19.195Z,0
2018-04-23T02:53:51.275Z,0
2018-04-23T02:54:23.282Z,0
2018-04-23T02:54:55.357Z,0
2018-04-23T02:55:27.377Z,0
2018-04-23T02:55:59.479Z,0
2018-04-23T02:56:31.495Z,0
2018-04-23T02:57:03.528Z,0
2018-04-23T02:57:35.629Z,0
2018-04-23T02:58:07.652Z,0
2018-04-23T02:58:39.655Z,0
2018-04-23T02:59:11.681Z,0
2018-04-23T02:59:43.728Z,0
2018-04-23T03:00:15.763Z,0
2018-04-23T03:00:47.793Z,0
2018-04-23T03:01:19.828Z,0
2018-04-23T03:01:51.897Z,0
2018-04-23T03:02:23.936Z,0
2018-04-23T03:02:55.957Z,0
2018-04-23T03:03:27.978Z,0
2018-04-23T03:04:00.057Z,0
2018-04-23T03:04:32.111Z,0
2018-04-23T03:05:04.135Z,0
2018-04-23T03:05:36.164Z,0
2018-04-23T03:06:08.209Z,0
2018-04-23T03:06:40.267Z,0
2018-04-23T03:07:12.457Z,0
2018-04-23T03:07:44.627Z,0
2018-04-23T03:08:16.718Z,0
2018-04-23T03:08:48.855Z,0
2018-04-23T03:09:20.865Z,0
2018-04-23T03:09:52.893Z,0
2018-04-23T03:10:25.006Z,0
2018-04-23T03:10:57.004Z,0
2018-04-23T03:11:28.969Z,0
2018-04-23T03:12:00.999Z,0
2018-04-23T03:12:33.097Z,0
2018-04-23T03:13:05.130Z,0
2018-04-23T03:13:37.180Z,0
2018-04-23T03:14:09.178Z,0
2018-04-23T03:14:41.188Z,0
2018-04-23T03:15:13.230Z,0
2018-04-23T03:15:45.290Z,0
2018-04-23T03:16:17.354Z,0
2018-04-23T03:16:49.418Z,0
2018-04-23T03:17:21.553Z,0
2018-04-23T03:17:53.557Z,0
2018-04-23T03:18:25.580Z,0
2018-04-23T03:18:57.552Z,0
2018-04-23T03:19:29.585Z,0
2018-04-23T03:20:01.612Z,0
2018-04-23T03:20:34.222Z,0
2018-04-23T03:21:07.015Z,0
2018-04-23T03:21:39.069Z,0
2018-04-23T03:22:11.140Z,0
2018-04-23T03:22:43.238Z,0
2018-04-23T03:23:15.315Z,0
2018-04-23T03:23:47.336Z,0
2018-04-23T03:24:19.412Z,0
2018-04-23T03:24:51.511Z,0
2018-04-23T03:25:23.517Z,0
2018-04-23T03:25:55.628Z,0
2018-04-23T03:26:27.714Z,0
2018-04-23T03:26:59.725Z,0
2018-04-23T03:27:31.730Z,0
2018-04-23T03:28:03.821Z,0
2018-04-23T03:28:35.892Z,0
2018-04-23T03:29:07.928Z,0
2018-04-23T03:29:39.977Z,0
2018-04-23T03:30:12.043Z,0
2018-04-23T03:30:44.085Z,0
2018-04-23T03:31:16.089Z,0
2018-04-23T03:31:48.096Z,0
2018-04-23T03:32:20.108Z,0
2018-04-23T03:32:52.167Z,0
2018-04-23T03:33:24.239Z,0
2018-04-23T03:33:56.228Z,0
2018-04-23T03:34:28.249Z,0
2018-04-23T03:35:00.296Z,0
2018-04-23T03:35:32.346Z,0
2018-04-23T03:36:04.404Z,0
2018-04-23T03:36:36.445Z,0
2018-04-23T03:37:08.529Z,0
2018-04-23T03:37:40.589Z,0
2018-04-23T03:38:12.648Z,0
2018-04-23T03:38:44.693Z,0
2018-04-23T03:39:16.709Z,0
2018-04-23T03:39:48.756Z,0
2018-04-23T03:40:20.771Z,0
2018-04-23T03:40:52.807Z,0
2018-04-23T03:41:24.942Z,0
2018-04-23T03:41:56.965Z,0
2018-04-23T03:42:28.957Z,0
2018-04-23T03:43:01.039Z,0
2018-04-23T03:43:33.098Z,0
2018-04-23T03:44:05.165Z,0
2018-04-23T03:44:37.157Z,0
2018-04-23T03:45:09.157Z,0
2018-04-23T03:45:41.135Z,0
2018-04-23T03:46:13.196Z,0
2018-04-23T03:46:45.284Z,0
2018-04-23T03:47:17.333Z,0
2018-04-23T03:47:49.352Z,0
2018-04-23T03:48:21.371Z,0
2018-04-23T03:48:53.389Z,0
2018-04-23T03:49:25.508Z,4
2018-04-23T03:49:57.549Z,4
2018-04-23T03:50:29.810Z,4
2018-04-23T03:51:01.822Z,4
2018-04-23T03:51:33.839Z,4
2018-04-23T03:52:05.888Z,4
2018-04-23T03:52:37.952Z,0
2018-04-23T03:53:09.997Z,4
2018-04-23T03:53:41.992Z,4
2018-04-23T03:54:14.060Z,4
2018-04-23T03:54:46.108Z,4
2018-04-23T03:55:18.110Z,4
2018-04-23T03:55:50.144Z,8
2018-04-23T03:56:22.210Z,4
2018-04-23T03:56:54.272Z,4
2018-04-23T03:57:26.271Z,8
2018-04-23T03:57:58.393Z,8
2018-04-23T03:58:30.497Z,8
2018-04-23T03:59:02.524Z,8
2018-04-23T03:59:34.559Z,8
2018-04-23T04:00:06.601Z,8
2018-04-23T04:00:38.627Z,12
2018-04-23T04:01:10.627Z,8
2018-04-23T04:01:42.642Z,12
2018-04-23T04:02:14.672Z,12
2018-04-23T04:02:46.727Z,16
2018-04-23T04:03:18.754Z,12
2018-04-23T04:03:51.569Z,16
2018-04-23T04:04:23.592Z,16
2018-04-23T04:04:55.577Z,20
2018-04-23T04:05:27.604Z,16
2018-04-23T04:05:59.666Z,20
2018-04-23T04:06:31.700Z,20
2018-04-23T04:07:03.726Z,20
2018-04-23T04:07:35.736Z,24
2018-04-23T04:08:07.778Z,24
2018-04-23T04:08:39.805Z,24
2018-04-23T04:09:11.845Z,28
2018-04-23T04:09:43.831Z,28
2018-04-23T04:10:15.859Z,28
2018-04-23T04:10:47.896Z,32
2018-04-23T04:11:20.021Z,32
2018-04-23T04:11:52.161Z,36
2018-04-23T04:12:24.216Z,36
2018-04-23T04:12:56.217Z,40
2018-04-23T04:13:28.256Z,40
2018-04-23T04:14:01.058Z,44
2018-04-23T04:14:33.045Z,44
2018-04-23T04:15:05.087Z,44
2018-04-23T04:15:37.150Z,48
2018-04-23T04:16:09.171Z,52
2018-04-23T04:16:41.194Z,52
2018-04-23T04:17:13.225Z,56
2018-04-23T04:17:45.266Z,60
2018-04-23T04:18:17.396Z,60
2018-04-23T04:18:49.435Z,64
2018-04-23T04:19:21.471Z,68
2018-04-23T04:19:53.492Z,72
2018-04-23T04:20:25.504Z,76
2018-04-23T04:20:57.507Z,80
2018-04-23T04:21:29.573Z,84
2018-04-23T04:22:01.577Z,88
2018-04-23T04:22:33.597Z,92
2018-04-23T04:23:05.658Z,96
2018-04-23T04:23:37.721Z,100
2018-04-23T04:24:09.783Z,100
2018-04-23T04:24:41.852Z,108
2018-04-23T04:25:13.868Z,112
2018-04-23T04:25:45.898Z,120
2018-04-23T04:26:17.934Z,120
2018-04-23T04:26:49.964Z,128
2018-04-23T04:27:22.028Z,132
2018-04-23T04:27:54.086Z,132
2018-04-23T04:28:26.090Z,140
2018-04-23T04:28:58.170Z,144
2018-04-23T04:29:30.169Z,148
2018-04-23T04:30:02.195Z,152
2018-04-23T04:30:34.196Z,156
2018-04-23T04:31:06.227Z,160
2018-04-23T04:31:38.266Z,164
2018-04-23T04:32:10.356Z,172
2018-04-23T04:32:42.403Z,172
2018-04-23T04:33:14.456Z,180
2018-04-23T04:33:46.491Z,188
2018-04-23T04:34:18.522Z,192
2018-04-23T04:34:51.146Z,196
2018-04-23T04:35:23.187Z,200
2018-04-23T04:35:55.293Z,204
2018-04-23T04:36:27.321Z,208
2018-04-23T04:36:59.350Z,212
2018-04-23T04:37:31.378Z,216
2018-04-23T04:38:03.403Z,224
2018-04-23T04:38:35.434Z,228
2018-04-23T04:39:07.463Z,236
2018-04-23T04:39:39.543Z,244
2018-04-23T04:40:11.713Z,252
2018-04-23T04:40:43.757Z,260
2018-04-23T04:41:15.795Z,264
2018-04-23T04:41:48.396Z,272
2018-04-23T04:42:20.445Z,272
2018-04-23T04:42:52.520Z,272
2018-04-23T04:43:24.538Z,276
2018-04-23T04:43:56.655Z,276
2018-04-23T04:44:28.779Z,284
2018-04-23T04:45:00.818Z,288
2018-04-23T04:45:32.890Z,292
2018-04-23T04:46:04.933Z,300
2018-04-23T04:46:36.971Z,308
2018-04-23T04:47:09.053Z,316
2018-04-23T04:47:41.111Z,324
2018-04-23T04:48:13.119Z,336
2018-04-23T04:48:45.188Z,344
2018-04-23T04:49:17.215Z,352
2018-04-23T04:49:49.279Z,360
2018-04-23T04:50:21.339Z,372
2018-04-23T04:50:53.355Z,380
2018-04-23T04:51:25.462Z,392
2018-04-23T04:51:57.447Z,400
2018-04-23T04:52:29.460Z,408
2018-04-23T04:53:01.554Z,420
2018-04-23T04:53:33.568Z,428
2018-04-23T04:54:05.573Z,432
2018-04-23T04:54:37.627Z,436
2018-04-23T04:55:09.677Z,440
2018-04-23T04:55:41.703Z,448
2018-04-23T04:56:13.761Z,452
2018-04-23T04:56:45.814Z,460
2018-04-23T04:57:17.785Z,472
2018-04-23T04:57:49.834Z,480
2018-04-23T04:58:21.876Z,488
2018-04-23T04:58:53.908Z,492
2018-04-23T04:59:25.947Z,504
2018-04-23T04:59:58.017Z,508
2018-04-23T05:00:30.064Z,508
2018-04-23T05:01:02.090Z,500
2018-04-23T05:01:34.135Z,496
2018-04-23T05:02:06.222Z,488
2018-04-23T05:02:38.251Z,480
2018-04-23T05:03:10.252Z,464
2018-04-23T05:03:42.216Z,440
2018-04-23T05:04:14.254Z,428
2018-04-23T05:04:46.276Z,412
2018-04-23T05:05:18.381Z,404
2018-04-23T05:05:50.376Z,396
2018-04-23T05:06:22.464Z,388
2018-04-23T05:06:54.420Z,380
2018-04-23T05:07:26.459Z,372
2018-04-23T05:07:58.495Z,364
2018-04-23T05:08:30.518Z,356
2018-04-23T05:09:02.504Z,356
2018-04-23T05:09:34.505Z,356
2018-04-23T05:10:06.532Z,360
2018-04-23T05:10:38.552Z,364
2018-04-23T05:11:10.577Z,368
2018-04-23T05:11:42.650Z,376
2018-04-23T05:12:14.659Z,376
2018-04-23T05:12:46.699Z,376
2018-04-23T05:13:18.756Z,372
2018-04-23T05:13:51.614Z,368
2018-04-23T05:14:23.601Z,364
2018-04-23T05:14:55.634Z,360
2018-04-23T05:15:27.664Z,372
2018-04-23T05:15:59.713Z,388
2018-04-23T05:16:31.705Z,408
2018-04-23T05:17:03.747Z,428
2018-04-23T05:17:35.779Z,448
2018-04-23T05:18:07.837Z,456
2018-04-23T05:18:39.858Z,472
2018-04-23T05:19:12.004Z,484
2018-04-23T05:19:44.077Z,492
2018-04-23T05:20:16.084Z,504
2018-04-23T05:20:48.091Z,516
2018-04-23T05:21:20.095Z,528
2018-04-23T05:21:52.129Z,540
2018-04-23T05:22:24.141Z,556
2018-04-23T05:22:56.242Z,568
2018-04-23T05:23:28.269Z,580
2018-04-23T05:24:00.312Z,596
2018-04-23T05:24:32.362Z,608
2018-04-23T05:25:04.435Z,624
2018-04-23T05:25:36.503Z,636
2018-04-23T05:26:08.557Z,656
2018-04-23T05:26:40.574Z,672
2018-04-23T05:27:12.560Z,688
2018-04-23T05:27:44.559Z,700
2018-04-23T05:28:16.611Z,716
2018-04-23T05:28:48.644Z,740
2018-04-23T05:29:20.666Z,764
2018-04-23T05:29:52.697Z,796
2018-04-23T05:30:24.723Z,824
2018-04-23T05:30:56.778Z,848
2018-04-23T05:31:28.810Z,864
2018-04-23T05:32:00.829Z,872
2018-04-23T05:32:32.845Z,880
2018-04-23T05:33:04.835Z,900
2018-04-23T05:33:36.897Z,920
2018-04-23T05:34:08.995Z,936
2018-04-23T05:34:41.029Z,952
2018-04-23T05:35:13.076Z,956
2018-04-23T05:35:45.115Z,960
2018-04-23T05:36:17.164Z,972
2018-04-23T05:36:49.203Z,980
2018-04-23T05:37:21.276Z,984
2018-04-23T05:37:53.420Z,984
2018-04-23T05:38:25.413Z,992
2018-04-23T05:38:57.466Z,1000
2018-04-23T05:39:29.561Z,1016
2018-04-23T05:40:01.554Z,1032
2018-04-23T05:40:33.582Z,1060
2018-04-23T05:41:05.583Z,1088
2018-04-23T05:41:37.592Z,1112
2018-04-23T05:42:09.570Z,1140
2018-04-23T05:42:41.597Z,1160
2018-04-23T05:43:13.819Z,1176
2018-04-23T05:43:45.852Z,1188
2018-04-23T05:44:17.843Z,1196
2018-04-23T05:44:49.875Z,1212
2018-04-23T05:45:21.906Z,1224
2018-04-23T05:45:53.930Z,1268
2018-04-23T05:46:25.997Z,1312
2018-04-23T05:46:58.022Z,1348
2018-04-23T05:47:30.053Z,1368
2018-04-23T05:48:02.099Z,1372
2018-04-23T05:48:34.306Z,1380
2018-04-23T05:49:06.323Z,1532
2018-04-23T05:49:38.334Z,1636
2018-04-23T05:50:10.344Z,1560
2018-04-23T05:50:42.388Z,1560
2018-04-23T05:51:14.381Z,1412
2018-04-23T05:51:46.400Z,1360
2018-04-23T05:52:18.440Z,1628
2018-04-23T05:52:50.493Z,1452
2018-04-23T05:53:22.523Z,1344
2018-04-23T05:53:54.579Z,1416
2018-04-23T05:54:26.891Z,1476
2018-04-23T05:54:59.082Z,1500
2018-04-23T05:55:31.211Z,1524
2018-04-23T05:56:03.330Z,1560
2018-04-23T05:56:35.453Z,1660
2018-04-23T05:57:07.677Z,1736
2018-04-23T05:57:39.851Z,1660
2018-04-23T05:58:12.022Z,2048
2018-04-23T05:58:44.349Z,2300
2018-04-23T05:59:16.508Z,2432
2018-04-23T05:59:48.714Z,2376
2018-04-23T06:00:21.174Z,2320
2018-04-23T06:00:53.599Z,2320
2018-04-23T06:01:25.873Z,2340
2018-04-23T06:01:58.097Z,2096
2018-04-23T06:02:30.199Z,1992
2018-04-23T06:03:02.346Z,1756
2018-04-23T06:03:34.482Z,1788
2018-04-23T06:04:06.524Z,1368
2018-04-23T06:04:38.584Z,1368
2018-04-23T06:05:10.735Z,1300
2018-04-23T06:05:42.851Z,1284
2018-04-23T06:06:14.889Z,1220
2018-04-23T06:06:47.046Z,1192
2018-04-23T06:07:19.634Z,1356
2018-04-23T06:07:51.679Z,1644
2018-04-23T06:08:23.709Z,1760
2018-04-23T06:08:55.952Z,1184
2018-04-23T06:09:28.004Z,1052
2018-04-23T06:10:00.040Z,1536
2018-04-23T06:10:32.057Z,984
2018-04-23T06:11:04.097Z,892
2018-04-23T06:11:36.121Z,808
2018-04-23T06:12:08.156Z,772
2018-04-23T06:12:40.188Z,744
2018-04-23T06:13:12.241Z,724
2018-04-23T06:13:44.272Z,708
2018-04-23T06:14:16.284Z,688
2018-04-23T06:14:48.406Z,668
2018-04-23T06:15:20.412Z,644
2018-04-23T06:15:52.415Z,632
2018-04-23T06:16:24.426Z,636
2018-04-23T06:16:56.547Z,644
2018-04-23T06:17:28.691Z,652
2018-04-23T06:18:00.761Z,648
2018-04-23T06:18:32.748Z,636
2018-04-23T06:19:04.795Z,632
2018-04-23T06:19:36.844Z,620
2018-04-23T06:20:08.845Z,624
2018-04-23T06:20:40.934Z,644
2018-04-23T06:21:12.936Z,688
2018-04-23T06:21:44.971Z,740
2018-04-23T06:22:17.049Z,796
2018-04-23T06:22:49.112Z,848
2018-04-23T06:23:21.167Z,892
2018-04-23T06:23:53.236Z,936
2018-04-23T06:24:25.216Z,984
2018-04-23T06:24:57.240Z,1036
2018-04-23T06:25:29.289Z,1080
2018-04-23T06:26:01.438Z,1116
2018-04-23T06:26:33.531Z,1160
2018-04-23T06:27:05.506Z,1192
2018-04-23T06:27:37.527Z,1248
2018-04-23T06:28:09.706Z,1264
2018-04-23T06:28:41.738Z,1272
2018-04-23T06:29:13.806Z,1264
2018-04-23T06:29:45.831Z,1284
2018-04-23T06:30:17.850Z,1320
2018-04-23T06:30:49.846Z,1388
2018-04-23T06:31:21.868Z,1436
2018-04-23T06:31:53.906Z,1472
2018-04-23T06:32:25.924Z,1508
2018-04-23T06:32:57.936Z,1528
2018-04-23T06:33:30.737Z,1508
2018-04-23T06:34:02.738Z,1480
2018-04-23T06:34:34.742Z,1464
2018-04-23T06:35:06.759Z,1432
2018-04-23T06:35:38.787Z,1460
2018-04-23T06:36:10.826Z,1544
2018-04-23T06:36:42.952Z,1656
2018-04-23T06:37:14.961Z,2124
2018-04-23T06:37:46.994Z,1992
2018-04-23T06:38:19.116Z,1692
2018-04-23T06:38:51.139Z,1608
2018-04-23T06:39:23.209Z,1608
2018-04-23T06:39:55.971Z,2844
2018-04-23T06:40:28.031Z,1864
2018-04-23T06:41:00.073Z,1772
2018-04-23T06:41:32.617Z,2760
2018-04-23T06:42:04.631Z,2372
2018-04-23T06:42:36.633Z,2076
2018-04-23T06:43:08.651Z,2336
2018-04-23T06:43:40.654Z,1408
2018-04-23T06:44:12.684Z,1392
2018-04-23T06:44:44.698Z,1320
2018-04-23T06:45:16.752Z,1548
2018-04-23T06:45:48.799Z,1316
2018-04-23T06:46:20.936Z,1264
2018-04-23T06:46:52.939Z,1232
2018-04-23T06:47:24.933Z,1208
2018-04-23T06:47:56.986Z,1256
2018-04-23T06:48:29.003Z,1316
2018-04-23T06:49:01.048Z,1332
2018-04-23T06:49:33.093Z,1356
2018-04-23T06:50:05.147Z,1436
2018-04-23T06:50:37.221Z,1524
2018-04-23T06:51:09.269Z,1588
2018-04-23T06:51:41.313Z,1636
2018-04-23T06:52:13.363Z,1760
2018-04-23T06:52:45.444Z,1792
2018-04-23T06:53:17.499Z,1760
2018-04-23T06:53:49.526Z,1780
2018-04-23T06:54:21.515Z,1832
2018-04-23T06:54:53.548Z,1876
2018-04-23T06:55:25.544Z,2076
2018-04-23T06:55:57.604Z,3684
2018-04-23T06:56:29.668Z,2040
2018-04-23T06:57:01.696Z,1984
2018-04-23T06:57:33.735Z,2056
2018-04-23T06:58:05.746Z,2316
2018-04-23T06:58:37.874Z,2188
2018-04-23T06:59:09.905Z,2984
2018-04-23T06:59:41.946Z,3516
2018-04-23T07:00:14.014Z,3420
2018-04-23T07:00:46.090Z,3532
2018-04-23T07:01:18.125Z,3340
2018-04-23T07:01:50.387Z,3360
2018-04-23T07:02:22.368Z,3156
2018-04-23T07:02:54.414Z,2736
2018-04-23T07:03:26.542Z,2816
2018-04-23T07:03:58.589Z,2508
2018-04-23T07:04:30.662Z,2256
2018-04-23T07:05:02.885Z,2276
2018-04-23T07:05:34.835Z,3020
2018-04-23T07:06:06.964Z,2896
2018-04-23T07:06:39.005Z,2880
2018-04-23T07:07:11.023Z,2732
2018-04-23T07:07:43.019Z,2296
2018-04-23T07:08:15.038Z,1924
2018-04-23T07:08:47.090Z,1780
2018-04-23T07:09:19.119Z,1732
2018-04-23T07:09:51.150Z,1752
2018-04-23T07:10:23.179Z,1768
2018-04-23T07:10:55.197Z,1772
2018-04-23T07:11:27.214Z,1768
2018-04-23T07:11:59.296Z,1772
2018-04-23T07:12:31.328Z,1736
2018-04-23T07:13:03.418Z,1708
2018-04-23T07:13:35.442Z,1688
2018-04-23T07:14:07.466Z,1664
2018-04-23T07:14:39.518Z,1612
2018-04-23T07:15:12.481Z,1516
2018-04-23T07:15:44.500Z,1400
2018-04-23T07:16:16.546Z,1560
2018-04-23T07:16:48.623Z,1296
2018-04-23T07:17:20.615Z,1260
2018-04-23T07:17:52.678Z,1264
2018-04-23T07:18:24.713Z,1268
2018-04-23T07:18:56.888Z,1272
2018-04-23T07:19:28.955Z,1284
2018-04-23T07:20:00.978Z,1296
2018-04-23T07:20:32.988Z,1332
2018-04-23T07:21:05.026Z,1368
2018-04-23T07:21:37.064Z,1428
2018-04-23T07:22:09.067Z,1476
2018-04-23T07:22:41.170Z,1572
2018-04-23T07:23:13.261Z,1680
2018-04-23T07:23:45.281Z,1724
2018-04-23T07:24:17.282Z,1724
2018-04-23T07:24:49.275Z,1696
2018-04-23T07:25:21.308Z,1696
2018-04-23T07:25:53.673Z,1672
2018-04-23T07:26:25.708Z,1628
2018-04-23T07:26:57.850Z,1556
2018-04-23T07:27:29.950Z,1524
2018-04-23T07:28:01.949Z,1524
2018-04-23T07:28:34.003Z,1524
2018-04-23T07:29:06.048Z,1548
2018-04-23T07:29:38.073Z,1588
2018-04-23T07:30:10.121Z,1576
2018-04-23T07:30:42.349Z,1588
2018-04-23T07:31:14.401Z,1604
2018-04-23T07:31:46.732Z,1628
2018-04-23T07:32:18.745Z,1704
2018-04-23T07:32:50.824Z,1676
2018-04-23T07:33:22.872Z,1828
2018-04-23T07:33:54.880Z,1884
2018-04-23T07:34:26.913Z,2364
2018-04-23T07:34:58.974Z,3380